createdAt,value
2018-12-17T00:00:55.261Z,0.80
2018-12-17T00:03:24.256Z,0.80
2018-12-17T00:05:53.925Z,0.80
2018-12-17T00:08:22.915Z,0.70
2018-12-17T00:10:51.942Z,0.80
2018-12-17T00:13:21.307Z,0.70
2018-12-17T00:15:50.462Z,0.60
2018-12-17T00:28:13.873Z,0.50
2018-12-17T00:30:42.868Z,0.60
2018-12-17T00:33:11.823Z,0.60
2018-12-17T00:35:40.871Z,0.60
2018-12-17T00:38:10.074Z,0.60
2018-12-17T00:40:39.032Z,0.60
2018-12-17T00:43:08.000Z,0.60
2018-12-17T00:45:37.386Z,0.60
2018-12-17T00:48:06.422Z,0.50
2018-12-17T00:50:35.441Z,0.60
2018-12-17T00:55:33.026Z,0.40
2018-12-17T00:58:02.216Z,0.30
2018-12-17T01:00:31.239Z,0.20
2018-12-17T01:03:01.105Z,0.20
2018-12-17T01:05:30.285Z,0.30
2018-12-17T01:07:59.605Z,0.40
2018-12-17T01:12:57.180Z,0.30
2018-12-17T01:17:54.756Z,0.20
2018-12-17T01:20:23.796Z,0.20
2018-12-17T01:22:53.046Z,0.00
2018-12-17T01:25:22.095Z,0.00
2018-12-17T01:27:51.118Z,-0.10
2018-12-17T01:30:20.520Z,0.00
2018-12-17T01:32:49.477Z,0.00
2018-12-17T01:40:15.767Z,-0.10
2018-12-17T01:42:44.737Z,-0.10
2018-12-17T01:45:13.920Z,-0.10
2018-12-17T01:47:42.894Z,0.00
2018-12-17T01:50:11.873Z,-0.10
2018-12-17T01:52:47.624Z,-0.10
2018-12-17T01:55:16.669Z,-0.10
2018-12-17T02:00:14.872Z,-0.20
2018-12-17T02:02:43.876Z,-0.30
2018-12-17T02:05:12.887Z,-0.30
2018-12-17T02:07:42.208Z,-0.30
2018-12-17T02:15:08.730Z,-0.30
2018-12-17T02:17:37.726Z,-0.40
2018-12-17T02:22:35.404Z,-0.40
2018-12-17T02:30:02.507Z,-0.50
2018-12-17T02:32:31.526Z,-0.50
2018-12-17T02:35:00.532Z,-0.40
2018-12-17T02:39:58.442Z,-0.50
2018-12-17T02:44:56.061Z,-0.30
2018-12-17T02:47:25.391Z,-0.30
2018-12-17T02:52:22.979Z,-0.60
2018-12-17T02:54:51.961Z,-0.60
2018-12-17T02:59:49.677Z,-0.70
2018-12-17T03:02:18.714Z,-0.70
2018-12-17T03:04:47.803Z,-0.70
2018-12-17T03:12:14.345Z,-0.70
2018-12-17T03:14:43.662Z,-0.60
2018-12-17T03:17:12.762Z,-0.70
2018-12-17T03:22:10.387Z,-0.90
2018-12-17T03:24:39.441Z,-0.90
2018-12-17T03:27:08.458Z,-0.90
2018-12-17T03:32:06.067Z,-0.90
2018-12-17T03:34:35.107Z,-1.00
2018-12-17T03:37:04.109Z,-1.00
2018-12-17T03:39:33.103Z,-1.20
2018-12-17T03:42:02.337Z,-1.30
2018-12-17T03:49:28.652Z,-1.60
2018-12-17T03:51:57.660Z,-1.80
2018-12-17T03:56:55.656Z,-1.80
2018-12-17T03:59:24.643Z,-1.80
2018-12-17T04:01:53.661Z,-1.90
2018-12-17T04:04:22.678Z,-2.00
2018-12-17T04:09:20.244Z,-1.80
2018-12-17T04:11:49.553Z,-1.90
2018-12-17T04:16:47.181Z,-2.00
2018-12-17T04:19:16.531Z,-2.10
2018-12-17T04:21:45.525Z,-2.10
2018-12-17T04:24:14.532Z,-2.00
2018-12-17T04:26:43.511Z,-1.90
2018-12-17T04:29:12.614Z,-2.00
2018-12-17T04:31:41.613Z,-1.90
2018-12-17T04:34:10.628Z,-1.80
2018-12-17T04:36:39.666Z,-1.80
2018-12-17T04:41:37.269Z,-1.70
2018-12-17T04:44:06.252Z,-1.70
2018-12-17T04:46:35.256Z,-1.70
2018-12-17T04:51:33.182Z,-1.70
2018-12-17T04:56:30.889Z,-1.50
2018-12-17T04:58:59.954Z,-1.50
2018-12-17T05:06:26.108Z,-1.40
2018-12-17T05:08:55.108Z,-1.60
2018-12-17T05:11:24.121Z,-1.60
2018-12-17T05:13:53.145Z,-1.60
2018-12-17T05:16:22.221Z,-1.70
2018-12-17T05:18:51.235Z,-1.70
2018-12-17T05:21:20.542Z,-1.70
2018-12-17T05:23:49.577Z,-1.70
2018-12-17T05:26:19.045Z,-1.70
2018-12-17T05:28:48.186Z,-1.80
2018-12-17T05:31:17.168Z,-1.80
2018-12-17T05:33:46.187Z,-1.80
2018-12-17T05:36:15.172Z,-2.00
2018-12-17T05:38:44.192Z,-2.00
2018-12-17T05:41:13.132Z,-2.00
2018-12-17T05:43:42.335Z,-2.00
2018-12-17T05:46:11.309Z,-2.00
2018-12-17T05:48:40.300Z,-2.00
2018-12-17T05:53:38.084Z,-2.10
2018-12-17T05:56:07.161Z,-2.10
2018-12-17T05:58:36.152Z,-2.40
2018-12-17T06:03:33.866Z,-2.20
2018-12-17T06:06:02.984Z,-2.10
2018-12-17T06:08:32.056Z,-2.10
2018-12-17T06:11:01.034Z,-2.20
2018-12-17T06:18:27.263Z,-2.10
2018-12-17T06:20:56.619Z,-2.10
2018-12-17T06:23:25.621Z,-2.10
2018-12-17T06:25:54.609Z,-2.30
2018-12-17T06:28:23.698Z,-2.20
2018-12-17T06:33:21.334Z,-2.20
2018-12-17T06:35:50.321Z,-2.10
2018-12-17T06:38:19.449Z,-2.00
2018-12-17T06:40:48.413Z,-2.00
2018-12-17T06:43:17.441Z,-2.00
2018-12-17T06:48:17.262Z,-2.10
2018-12-17T06:55:43.735Z,-2.20
2018-12-17T06:58:13.340Z,-2.20
2018-12-17T07:00:42.353Z,-2.20
2018-12-17T07:03:11.342Z,-2.10
2018-12-17T07:05:40.611Z,-2.20
2018-12-17T07:10:38.237Z,-2.10
2018-12-17T07:13:07.260Z,-2.20
2018-12-17T07:15:36.231Z,-2.30
2018-12-17T07:18:05.362Z,-2.30
2018-12-17T07:20:34.329Z,-2.20
2018-12-17T07:23:03.621Z,-2.00
2018-12-17T07:28:01.180Z,-1.90
2018-12-17T07:30:30.173Z,-1.90
2018-12-17T07:32:59.425Z,-1.90
2018-12-17T07:35:28.489Z,-1.80
2018-12-17T07:37:57.859Z,-1.70
2018-12-17T07:40:27.061Z,-1.80
2018-12-17T07:45:24.741Z,-2.10
2018-12-17T07:47:53.713Z,-2.20
2018-12-17T07:50:22.672Z,-2.00
2018-12-17T07:52:51.730Z,-1.90
2018-12-17T07:55:20.804Z,-1.80
2018-12-17T08:00:19.225Z,-1.70
2018-12-17T08:02:48.217Z,-1.90
2018-12-17T08:05:17.180Z,-1.70
2018-12-17T08:10:15.478Z,-1.50
2018-12-17T08:15:14.018Z,-1.30
2018-12-17T08:20:11.778Z,-1.30
2018-12-17T08:22:41.494Z,-1.20
2018-12-17T08:32:37.097Z,-0.90
2018-12-17T08:37:34.932Z,-1.00
2018-12-17T08:40:04.707Z,-0.70
2018-12-17T08:42:33.770Z,-0.60
2018-12-17T08:45:02.747Z,-0.40
2018-12-17T08:47:31.720Z,-0.40
2018-12-17T08:50:00.717Z,-0.30
2018-12-17T08:54:58.898Z,-0.20
2018-12-17T08:57:27.889Z,-0.30
2018-12-17T09:04:54.082Z,0.10
2018-12-17T09:07:23.124Z,0.20
2018-12-17T09:09:52.114Z,0.30
2018-12-17T09:12:21.091Z,0.40
2018-12-17T09:14:50.108Z,0.40
2018-12-17T09:22:16.312Z,0.70
2018-12-17T09:24:46.019Z,0.80
2018-12-17T09:29:43.688Z,0.70
2018-12-17T09:34:41.536Z,0.80
2018-12-17T09:37:10.561Z,0.90
2018-12-17T09:39:39.576Z,0.90
2018-12-17T09:42:08.681Z,1.00
2018-12-17T09:44:37.708Z,1.20
2018-12-17T09:47:06.772Z,1.30
2018-12-17T09:49:35.751Z,1.40
2018-12-17T09:52:04.744Z,1.60
2018-12-17T09:57:02.624Z,2.10
2018-12-17T09:59:31.587Z,2.10
2018-12-17T10:02:00.556Z,2.30
2018-12-17T10:04:29.542Z,2.40
2018-12-17T10:06:58.785Z,3.40
2018-12-17T10:09:27.775Z,4.10
2018-12-17T10:11:56.786Z,4.20
2018-12-17T10:14:25.823Z,4.10
2018-12-17T10:16:54.870Z,3.90
2018-12-17T10:19:23.919Z,4.10
2018-12-17T10:24:21.501Z,3.70
2018-12-17T10:26:50.534Z,3.30
2018-12-17T10:31:48.732Z,3.20
2018-12-17T10:34:17.705Z,3.00
2018-12-17T10:41:44.228Z,3.50
2018-12-17T10:44:13.309Z,3.90
2018-12-17T10:46:42.296Z,3.50
2018-12-17T10:49:11.312Z,3.70
2018-12-17T10:51:40.533Z,3.70
2018-12-17T10:54:09.577Z,3.40
2018-12-17T10:56:38.635Z,3.50
2018-12-17T10:59:07.600Z,3.70
2018-12-17T11:02:44.720Z,3.80
2018-12-17T11:05:16.581Z,3.90
2018-12-17T11:07:45.560Z,3.60
2018-12-17T11:17:40.668Z,3.20
2018-12-17T11:20:10.721Z,3.40
2018-12-17T11:22:40.036Z,3.20
2018-12-17T11:25:09.276Z,3.50
2018-12-17T11:37:36.813Z,3.80
2018-12-17T11:40:06.099Z,4.10
2018-12-17T11:42:35.097Z,4.10
2018-12-17T11:45:04.756Z,4.00
2018-12-17T11:47:33.732Z,3.90
2018-12-17T11:50:02.728Z,4.10
2018-12-17T11:52:31.720Z,3.90
2018-12-17T11:55:00.698Z,3.90
2018-12-17T11:58:10.114Z,3.80
2018-12-17T12:00:41.524Z,3.70
2018-12-17T12:03:10.796Z,4.10
2018-12-17T12:05:39.851Z,4.40
2018-12-17T12:15:34.685Z,5.60
2018-12-17T12:18:03.809Z,5.60
2018-12-17T12:23:01.973Z,5.60
2018-12-17T12:25:30.937Z,5.90
2018-12-17T12:27:59.979Z,5.80
2018-12-17T12:30:28.991Z,5.90
2018-12-17T12:32:58.001Z,5.90
2018-12-17T12:35:27.141Z,6.10
2018-12-17T12:37:56.123Z,6.30
2018-12-17T12:42:53.713Z,6.60
2018-12-17T12:47:51.416Z,6.50
2018-12-17T12:50:20.624Z,6.60
2018-12-17T12:52:49.632Z,6.60
2018-12-17T12:55:18.619Z,6.70
2018-12-17T13:00:16.649Z,7.10
2018-12-17T13:02:45.709Z,7.40
2018-12-17T13:07:43.321Z,7.70
2018-12-17T13:10:13.320Z,7.70
2018-12-17T13:12:42.556Z,7.80
2018-12-17T13:15:11.625Z,8.30
2018-12-17T13:17:40.624Z,7.40
2018-12-17T13:20:10.934Z,6.70
2018-12-17T13:22:39.910Z,6.40
2018-12-17T13:25:13.147Z,6.30
2018-12-17T13:27:42.161Z,5.90
2018-12-17T13:30:11.270Z,5.70
2018-12-17T13:32:40.252Z,5.70
2018-12-17T13:35:09.714Z,5.60
2018-12-17T13:37:38.691Z,5.50
2018-12-17T13:40:09.899Z,5.50
2018-12-17T13:42:38.880Z,5.30
2018-12-17T13:45:08.115Z,5.50
2018-12-17T13:50:39.531Z,5.30
2018-12-17T13:58:12.278Z,5.10
2018-12-17T14:00:41.452Z,5.10
2018-12-17T14:05:39.327Z,5.20
2018-12-17T14:10:55.462Z,5.00
2018-12-17T14:15:57.928Z,5.20
2018-12-17T14:18:32.307Z,5.20
2018-12-17T14:21:06.720Z,5.10
2018-12-17T14:23:35.737Z,4.90
2018-12-17T14:26:04.843Z,4.90
2018-12-17T14:31:02.466Z,4.70
2018-12-17T14:33:32.289Z,4.90
2018-12-17T14:36:06.680Z,5.00
2018-12-17T14:38:35.993Z,5.00
2018-12-17T14:41:05.548Z,5.00
2018-12-17T14:46:03.531Z,5.00
2018-12-17T14:48:32.522Z,4.90
2018-12-17T14:51:01.527Z,4.90
2018-12-17T14:53:30.507Z,4.80
2018-12-17T14:58:28.080Z,4.70
2018-12-17T15:01:00.074Z,4.70
2018-12-17T15:03:29.107Z,4.70
2018-12-17T15:05:58.089Z,4.50
2018-12-17T15:08:27.043Z,4.50
2018-12-17T15:10:56.351Z,4.40
2018-12-17T15:13:25.331Z,4.40
2018-12-17T15:15:54.400Z,4.30
2018-12-17T15:18:23.384Z,4.30
2018-12-17T15:23:20.934Z,4.10
2018-12-17T15:28:18.604Z,3.90
2018-12-17T15:33:16.144Z,3.90
2018-12-17T15:38:14.027Z,4.00
2018-12-17T15:40:43.017Z,3.90
2018-12-17T15:43:12.035Z,3.80
2018-12-17T15:45:41.204Z,3.70
2018-12-17T15:50:38.789Z,3.70
2018-12-17T15:53:07.799Z,3.80
2018-12-17T16:00:33.949Z,3.90
2018-12-17T16:03:03.081Z,3.90
2018-12-17T16:05:32.793Z,4.00
2018-12-17T16:08:01.783Z,3.90
2018-12-17T16:10:31.143Z,4.00
2018-12-17T16:13:00.131Z,4.10
2018-12-17T16:15:29.103Z,4.00
2018-12-17T16:17:58.125Z,4.00
2018-12-17T16:20:27.140Z,4.00
2018-12-17T16:30:21.892Z,3.80
2018-12-17T16:33:01.932Z,3.90
2018-12-17T16:35:31.014Z,4.00
2018-12-17T16:38:01.214Z,4.00
2018-12-17T16:42:59.821Z,4.00
2018-12-17T16:50:26.437Z,4.00
2018-12-17T16:52:56.256Z,4.10
2018-12-17T16:55:26.333Z,4.00
2018-12-17T16:57:55.305Z,4.10
2018-12-17T17:00:24.373Z,4.10
2018-12-17T17:07:43.622Z,4.20
2018-12-17T17:12:42.491Z,4.30
2018-12-17T17:17:45.322Z,4.10
2018-12-17T17:22:42.888Z,4.30
2018-12-17T17:25:12.247Z,4.10
2018-12-17T17:27:41.284Z,4.00
2018-12-17T17:35:09.245Z,3.40
2018-12-17T17:37:38.820Z,3.90
2018-12-17T17:40:07.943Z,3.90
2018-12-17T17:45:06.203Z,4.30
2018-12-17T17:50:05.085Z,3.90
2018-12-17T17:52:34.297Z,3.90
2018-12-17T17:57:32.064Z,4.00
2018-12-17T18:00:01.128Z,3.80
2018-12-17T18:02:30.205Z,4.10
2018-12-17T18:07:28.050Z,3.90
2018-12-17T18:17:23.116Z,4.00
2018-12-17T18:22:20.740Z,3.90
2018-12-17T18:24:49.700Z,3.90
2018-12-17T18:27:18.732Z,4.00
2018-12-17T18:32:16.307Z,3.70
2018-12-17T18:34:45.314Z,3.60
2018-12-17T18:37:14.344Z,3.80
2018-12-17T18:39:43.354Z,3.60
2018-12-17T18:42:12.357Z,3.70
2018-12-17T18:44:41.839Z,3.90
2018-12-17T18:52:08.156Z,3.80
2018-12-17T18:59:34.524Z,3.70
2018-12-17T19:04:32.250Z,3.60
2018-12-17T19:14:27.189Z,3.70
2018-12-17T19:19:25.333Z,3.60
2018-12-17T19:26:52.563Z,3.80
2018-12-17T19:31:50.257Z,3.70
2018-12-17T19:36:47.884Z,3.70
2018-12-17T19:41:45.557Z,3.40
2018-12-17T19:56:37.663Z,3.60
2018-12-17T19:59:06.870Z,3.60
2018-12-17T20:06:33.158Z,3.40
2018-12-17T20:09:02.531Z,3.80
2018-12-17T20:16:28.741Z,3.70
2018-12-17T20:43:45.072Z,3.30
2018-12-17T20:46:17.190Z,3.50
2018-12-17T20:48:47.386Z,3.30
2018-12-17T20:53:46.789Z,3.20
2018-12-17T20:56:15.772Z,3.20
2018-12-17T20:58:44.746Z,2.90
2018-12-17T21:01:14.054Z,3.20
2018-12-17T21:03:43.068Z,3.20
2018-12-17T21:06:12.059Z,3.20
2018-12-17T21:08:41.084Z,3.40
2018-12-17T21:13:39.107Z,3.30
2018-12-17T21:18:36.751Z,3.20
2018-12-17T21:21:05.728Z,3.10
2018-12-17T21:23:35.056Z,3.10
2018-12-17T21:26:04.019Z,3.10
2018-12-17T21:38:27.633Z,3.20
2018-12-17T21:40:56.934Z,3.30
2018-12-17T21:43:25.947Z,3.30
2018-12-17T21:45:54.912Z,3.30
2018-12-17T21:53:21.149Z,3.40
2018-12-17T21:55:50.143Z,3.80
2018-12-17T21:58:19.152Z,3.40
2018-12-17T22:00:48.163Z,3.50
2018-12-17T22:03:17.153Z,3.40
2018-12-17T22:05:46.144Z,3.40
2018-12-17T22:08:15.134Z,3.70
2018-12-17T22:10:44.152Z,3.30
2018-12-17T22:13:13.420Z,3.20
2018-12-17T22:15:42.465Z,3.20
2018-12-17T22:18:11.482Z,2.90
2018-12-17T22:20:40.470Z,3.20
2018-12-17T22:25:38.328Z,3.60
2018-12-17T22:28:07.421Z,3.20
2018-12-17T22:30:36.434Z,3.20
2018-12-17T22:35:34.325Z,3.20
2018-12-17T22:38:03.390Z,3.00
2018-12-17T22:43:01.293Z,3.10
2018-12-17T22:45:30.615Z,3.10
2018-12-17T22:48:00.018Z,3.00
2018-12-17T22:50:29.012Z,3.40
2018-12-17T22:55:26.590Z,3.50
2018-12-17T22:57:56.036Z,3.00
2018-12-17T23:00:25.588Z,3.30
2018-12-17T23:02:54.611Z,2.40
2018-12-17T23:07:52.928Z,2.80
2018-12-17T23:10:37.592Z,3.00
2018-12-17T23:23:12.240Z,3.10
2018-12-17T23:30:39.554Z,3.10
2018-12-17T23:33:08.599Z,3.10
2018-12-17T23:38:07.062Z,3.10
2018-12-17T23:40:36.096Z,3.10
2018-12-17T23:43:05.389Z,3.10
2018-12-17T23:53:00.768Z,2.90
2018-12-17T23:55:29.760Z,3.10
2018-12-17T23:57:58.764Z,3.00
